Ryouseimaru — 7JFF — position and weather

sailwx.info

Track history (hours):
 
Tides and Currents Weather Stations Pressure Air Temp Water Temp Dewpoint Dewpoint Depression Visibility Wind Speed Wind Dir Waves Ship Positions

Ryouseimaru

Last reported at 2018-May-25 18:02 UTC. Time now 2018-May-25 18:56 UTC.
Position N 34°35' E 134°52'.

Length 72 m; draft 5.3 m.

Type: Tanker. MMSI: 432702000.

Date/timePositionNaut miles runAvg speedWind from/ knotsBaromVisibWave heightAir tempDewpointWater temp
2018-May-25 18:02N 34°35' E 134°52'012.6
2018-May-25 18:00N 34°34' E 134°51'612.9
2018-May-25 17:30N 34°32' E 134°44'713.1
2018-May-25 17:00N 34°29' E 134°37'813.3
2018-May-25 16:26N 34°26' E 134°28'3 0.1
2018-May-24 06:46N 34°26' E 134°25'311.9
2018-May-24 06:30N 34°27' E 134°28'612.2
2018-May-24 06:01N 34°29' E 134°35'612.3
2018-May-24 05:31N 34°31' E 134°42'612.4
2018-May-24 05:00N 34°34' E 134°49'711.7
2018-May-24 04:21N 34°37' E 134°58'4 9.4
2018-May-24 03:57N 34°37' E 135°02'4 9.6
2018-May-24 03:30N 34°36' E 135°07'611.5
2018-May-24 03:00N 34°37' E 135°14'5 9.7
2018-May-24 02:29N 34°42' E 135°15'1 0.8
2018-May-24 01:52N 34°42' E 135°15'0 0.0
2018-May-24 01:28N 34°42' E 135°15'0 0.0
2018-May-24 00:52N 34°42' E 135°15'0 0.0
2018-May-24 00:28N 34°42' E 135°15'0 0.0
2018-May-23 23:46N 34°42' E 135°15'0 0.0
2018-May-23 23:22N 34°42' E 135°15'0 0.3
2018-May-23 23:00N 34°42' E 135°15'4 7.1
2018-May-23 22:30N 34°39' E 135°16'1 2.4
2018-May-23 21:55N 34°37' E 135°16'0 0.0
2018-May-23 21:28N 34°37' E 135°16'0 0.1
2018-May-23 20:56N 34°37' E 135°16'4 8.2
2018-May-23 20:30N 34°36' E 135°12'612.5
2018-May-23 20:00N 34°35' E 135°05'10 9.6
2018-May-23 18:56N 34°34' E 134°52'510.8
2018-May-23 18:30N 34°33' E 134°47'612.2
2018-May-23 18:00N 34°30' E 134°40'612.8
2018-May-23 17:30N 34°28' E 134°33'713.1
2018-May-23 16:59N 34°25' E 134°25'10 0.3
2018-May-22 07:36N 34°25' E 134°13'811.9
2018-May-22 06:57N 34°25' E 134°22'612.2
2018-May-22 06:25N 34°27' E 134°30'512.0
2018-May-22 06:00N 34°29' E 134°35'612.1
2018-May-22 05:30N 34°32' E 134°42'1513.0
2018-May-22 04:22N 34°37' E 134°58'412.1
2018-May-22 04:00N 34°36' E 135°04'611.1
2018-May-22 03:30N 34°36' E 135°10'510.4
2018-May-22 02:59N 34°37' E 135°17'5 9.8
2018-May-22 02:30N 34°42' E 135°15'0 0.0
2018-May-21 23:52N 34°42' E 135°15'0 0.0
2018-May-21 23:22N 34°42' E 135°15'0 0.5
2018-May-21 23:00N 34°42' E 135°15'2 4.7
2018-May-21 22:30N 34°40' E 135°15'3 5.5
2018-May-21 22:00N 34°37' E 135°14'4 8.4
2018-May-21 21:30N 34°41' E 135°12'0 0.4
2018-May-21 20:56N 34°41' E 135°12'0 0.0
2018-May-21 20:26N 34°41' E 135°12'0 0.0
2018-May-21 19:56N 34°41' E 135°12'0 0.0
2018-May-21 19:26N 34°41' E 135°12'0 0.0
2018-May-21 18:44N 34°41' E 135°12'0 0.0
2018-May-21 18:20N 34°41' E 135°12'0 0.0
2018-May-21 17:50N 34°41' E 135°12'0 0.0
2018-May-21 17:20N 34°41' E 135°12'0 0.0
2018-May-21 16:50N 34°41' E 135°12'0 0.0
2018-May-21 16:26N 34°41' E 135°12'0 0.0
2018-May-21 15:56N 34°41' E 135°12'0 0.0
2018-May-21 15:26N 34°41' E 135°12'0 0.0
2018-May-21 14:56N 34°41' E 135°12'0 0.0
2018-May-21 14:20N 34°41' E 135°12'0 0.0
2018-May-21 13:56N 34°41' E 135°12'0 0.0
2018-May-21 13:14N 34°41' E 135°12'0 0.0
2018-May-21 12:56N 34°41' E 135°12'0 0.0
2018-May-21 12:26N 34°41' E 135°12'0 0.0
2018-May-21 11:50N 34°41' E 135°12'0 0.0
2018-May-21 11:26N 34°41' E 135°12'0 0.0
2018-May-21 10:56N 34°41' E 135°12'0 0.0
2018-May-21 10:08N 34°41' E 135°12'0 0.0
2018-May-21 09:56N 34°41' E 135°12'0 0.0
2018-May-21 09:20N 34°41' E 135°12'0 0.0
2018-May-21 08:56N 34°41' E 135°12'0 0.0
2018-May-21 08:20N 34°41' E 135°12'0 0.0
2018-May-21 07:56N 34°41' E 135°12'0 0.0
2018-May-21 07:26N 34°41' E 135°12'0 0.0
2018-May-21 06:50N 34°41' E 135°12'0 0.0
2018-May-21 06:26N 34°41' E 135°12'0 0.0
2018-May-21 05:56N 34°41' E 135°12'0 0.0
2018-May-21 05:26N 34°41' E 135°12'0 0.0
2018-May-21 04:50N 34°41' E 135°12'0 0.0
2018-May-21 04:26N 34°41' E 135°12'0 0.0
2018-May-21 03:56N 34°41' E 135°12'0 0.0
2018-May-21 03:26N 34°41' E 135°12'0 0.0
2018-May-21 02:56N 34°41' E 135°12'0 0.0
2018-May-21 02:26N 34°41' E 135°12'0 0.0
2018-May-21 01:56N 34°41' E 135°12'0 0.0
2018-May-21 01:26N 34°41' E 135°12'0 0.0
2018-May-21 00:56N 34°41' E 135°12'0 0.0
2018-May-21 00:14N 34°41' E 135°12'0 0.0
2018-May-20 23:56N 34°41' E 135°12'0 0.0
2018-May-20 23:26N 34°41' E 135°12'0 0.1
2018-May-20 23:00N 34°41' E 135°12'3 5.4
2018-May-20 22:30N 34°38' E 135°10'4 8.4
2018-May-20 22:00N 34°34' E 135°09'612.0
2018-May-20 21:30N 34°29' E 135°06'611.8
2018-May-20 21:00N 34°23' E 135°03'611.6
2018-May-20 20:30N 34°18' E 134°60'611.6
2018-May-20 20:00N 34°13' E 134°60'612.5
2018-May-20 19:30N 34°06' E 135°01'612.4
2018-May-20 19:00N 34°00' E 135°02'12 0.3
2018-May-19 07:38N 33°48' E 135°04'212.4
2018-May-19 07:29N 33°50' E 135°02'612.3
2018-May-19 07:00N 33°55' E 135°00'612.5
2018-May-19 06:30N 34°02' E 134°59'612.1
2018-May-19 06:00N 34°08' E 134°59'612.4
2018-May-19 05:30N 34°14' E 134°58'713.2
2018-May-19 05:01N 34°20' E 134°60'612.5
2018-May-19 04:31N 34°25' E 135°04'612.8
2018-May-19 04:00N 34°30' E 135°10'612.0
2018-May-19 03:30N 34°34' E 135°14'510.9
2018-May-19 03:00N 34°40' E 135°15'2 3.7
2018-May-19 02:25N 34°42' E 135°15'0 0.0
2018-May-19 01:55N 34°42' E 135°15'0 0.0
2018-May-19 01:25N 34°42' E 135°15'0 0.0
2018-May-19 00:55N 34°42' E 135°15'0 0.0
2018-May-19 00:25N 34°42' E 135°15'0 0.0
2018-May-18 23:49N 34°42' E 135°15'0 0.0
2018-May-18 23:25N 34°42' E 135°15'0 0.0
2018-May-18 22:55N 34°42' E 135°15'2 5.0
2018-May-18 22:30N 34°40' E 135°15'3 6.3
2018-May-18 22:00N 34°37' E 135°15'0 0.0
2018-May-18 21:30N 34°37' E 135°15'0 0.0
2018-May-18 21:00N 34°37' E 135°15'0 0.0
2018-May-18 20:30N 34°37' E 135°15'0 0.0
2018-May-18 20:00N 34°37' E 135°15'0 0.8
2018-May-18 19:30N 34°37' E 135°15'612.7
2018-May-18 19:00N 34°35' E 135°08'713.8
2018-May-18 18:30N 34°37' E 134°59'714.1
2018-May-18 18:00N 34°34' E 134°51'612.5
2018-May-18 17:30N 34°32' E 134°45'612.6
2018-May-18 17:00N 34°29' E 134°38'713.5
2018-May-18 16:29N 34°27' E 134°30'13 0.4
2018-May-17 06:45N 34°24' E 134°14'310.7
2018-May-17 06:28N 34°24' E 134°17'611.5
2018-May-17 05:57N 34°26' E 134°24'611.7
2018-May-17 05:29N 34°28' E 134°31'511.4
2018-May-17 05:00N 34°30' E 134°37'611.6
2018-May-17 04:30N 34°32' E 134°43'611.7
2018-May-17 03:59N 34°34' E 134°50'611.0
2018-May-17 03:28N 34°37' E 134°56'510.2
2018-May-17 02:59N 34°37' E 135°02'510.7
2018-May-17 02:29N 34°36' E 135°09'611.9
2018-May-17 02:00N 34°38' E 135°15'4 8.7
2018-May-17 01:30N 34°42' E 135°15'0 0.1
2018-May-17 01:00N 34°42' E 135°15'0 0.0
2018-May-17 00:30N 34°42' E 135°15'0 0.0
2018-May-16 23:54N 34°42' E 135°15'0 0.0
2018-May-16 23:18N 34°42' E 135°15'0 0.0
2018-May-16 23:00N 34°42' E 135°15'4 8.3
2018-May-16 22:31N 34°38' E 135°17'2 2.9
2018-May-16 21:47N 34°37' E 135°15'0 0.0
2018-May-16 21:29N 34°37' E 135°15'0 0.3
2018-May-16 20:59N 34°37' E 135°15'1 2.7
2018-May-16 20:30N 34°36' E 135°13'713.7
2018-May-16 20:01N 34°35' E 135°05'1113.6
2018-May-16 19:14N 34°35' E 134°52'314.0
2018-May-16 19:00N 34°33' E 134°49'713.3
2018-May-16 18:30N 34°30' E 134°41'713.6
2018-May-16 18:00N 34°28' E 134°34'713.6
2018-May-16 17:29N 34°25' E 134°26'  
Track history (hours):
 
Tides and Currents Weather Stations Pressure Air Temp Water Temp Dewpoint Dewpoint Depression Visibility Wind Speed Wind Dir Waves Ship Positions

Ryouseimaru

Last reported at 2018-May-25 18:02 UTC. Time now 2018-May-25 18:56 UTC.
Position N 34°35' E 134°52'.

Length 72 m; draft 5.3 m.

Type: Tanker. MMSI: 432702000.

Date/timePositionNaut miles runAvg speedWind from/ knotsBaromVisibWave heightAir tempDewpointWater temp
2018-May-25 18:02N 34°35' E 134°52'012.6
2018-May-25 18:00N 34°34' E 134°51'612.9
2018-May-25 17:30N 34°32' E 134°44'713.1
2018-May-25 17:00N 34°29' E 134°37'813.3
2018-May-25 16:26N 34°26' E 134°28'3 0.1
2018-May-24 06:46N 34°26' E 134°25'311.9
2018-May-24 06:30N 34°27' E 134°28'612.2
2018-May-24 06:01N 34°29' E 134°35'612.3
2018-May-24 05:31N 34°31' E 134°42'612.4
2018-May-24 05:00N 34°34' E 134°49'711.7
2018-May-24 04:21N 34°37' E 134°58'4 9.4
2018-May-24 03:57N 34°37' E 135°02'4 9.6
2018-May-24 03:30N 34°36' E 135°07'611.5
2018-May-24 03:00N 34°37' E 135°14'5 9.7
2018-May-24 02:29N 34°42' E 135°15'1 0.8
2018-May-24 01:52N 34°42' E 135°15'0 0.0
2018-May-24 01:28N 34°42' E 135°15'0 0.0
2018-May-24 00:52N 34°42' E 135°15'0 0.0
2018-May-24 00:28N 34°42' E 135°15'0 0.0
2018-May-23 23:46N 34°42' E 135°15'0 0.0
2018-May-23 23:22N 34°42' E 135°15'0 0.3
2018-May-23 23:00N 34°42' E 135°15'4 7.1
2018-May-23 22:30N 34°39' E 135°16'1 2.4
2018-May-23 21:55N 34°37' E 135°16'0 0.0
2018-May-23 21:28N 34°37' E 135°16'0 0.1
2018-May-23 20:56N 34°37' E 135°16'4 8.2
2018-May-23 20:30N 34°36' E 135°12'612.5
2018-May-23 20:00N 34°35' E 135°05'10 9.6
2018-May-23 18:56N 34°34' E 134°52'510.8
2018-May-23 18:30N 34°33' E 134°47'612.2
2018-May-23 18:00N 34°30' E 134°40'612.8
2018-May-23 17:30N 34°28' E 134°33'713.1
2018-May-23 16:59N 34°25' E 134°25'10 0.3
2018-May-22 07:36N 34°25' E 134°13'811.9
2018-May-22 06:57N 34°25' E 134°22'612.2
2018-May-22 06:25N 34°27' E 134°30'512.0
2018-May-22 06:00N 34°29' E 134°35'612.1
2018-May-22 05:30N 34°32' E 134°42'1513.0
2018-May-22 04:22N 34°37' E 134°58'412.1
2018-May-22 04:00N 34°36' E 135°04'611.1
2018-May-22 03:30N 34°36' E 135°10'510.4
2018-May-22 02:59N 34°37' E 135°17'5 9.8
2018-May-22 02:30N 34°42' E 135°15'0 0.0
2018-May-21 23:52N 34°42' E 135°15'0 0.0
2018-May-21 23:22N 34°42' E 135°15'0 0.5
2018-May-21 23:00N 34°42' E 135°15'2 4.7
2018-May-21 22:30N 34°40' E 135°15'3 5.5
2018-May-21 22:00N 34°37' E 135°14'4 8.4
2018-May-21 21:30N 34°41' E 135°12'0 0.4
2018-May-21 20:56N 34°41' E 135°12'0 0.0
2018-May-21 20:26N 34°41' E 135°12'0 0.0
2018-May-21 19:56N 34°41' E 135°12'0 0.0
2018-May-21 19:26N 34°41' E 135°12'0 0.0
2018-May-21 18:44N 34°41' E 135°12'0 0.0
2018-May-21 18:20N 34°41' E 135°12'0 0.0
2018-May-21 17:50N 34°41' E 135°12'0 0.0
2018-May-21 17:20N 34°41' E 135°12'0 0.0
2018-May-21 16:50N 34°41' E 135°12'0 0.0
2018-May-21 16:26N 34°41' E 135°12'0 0.0
2018-May-21 15:56N 34°41' E 135°12'0 0.0
2018-May-21 15:26N 34°41' E 135°12'0 0.0
2018-May-21 14:56N 34°41' E 135°12'0 0.0
2018-May-21 14:20N 34°41' E 135°12'0 0.0
2018-May-21 13:56N 34°41' E 135°12'0 0.0
2018-May-21 13:14N 34°41' E 135°12'0 0.0
2018-May-21 12:56N 34°41' E 135°12'0 0.0
2018-May-21 12:26N 34°41' E 135°12'0 0.0
2018-May-21 11:50N 34°41' E 135°12'0 0.0
2018-May-21 11:26N 34°41' E 135°12'0 0.0
2018-May-21 10:56N 34°41' E 135°12'0 0.0
2018-May-21 10:08N 34°41' E 135°12'0 0.0
2018-May-21 09:56N 34°41' E 135°12'0 0.0
2018-May-21 09:20N 34°41' E 135°12'0 0.0
2018-May-21 08:56N 34°41' E 135°12'0 0.0
2018-May-21 08:20N 34°41' E 135°12'0 0.0
2018-May-21 07:56N 34°41' E 135°12'0 0.0
2018-May-21 07:26N 34°41' E 135°12'0 0.0
2018-May-21 06:50N 34°41' E 135°12'0 0.0
2018-May-21 06:26N 34°41' E 135°12'0 0.0
2018-May-21 05:56N 34°41' E 135°12'0 0.0
2018-May-21 05:26N 34°41' E 135°12'0 0.0
2018-May-21 04:50N 34°41' E 135°12'0 0.0
2018-May-21 04:26N 34°41' E 135°12'0 0.0
2018-May-21 03:56N 34°41' E 135°12'0 0.0
2018-May-21 03:26N 34°41' E 135°12'0 0.0
2018-May-21 02:56N 34°41' E 135°12'0 0.0
2018-May-21 02:26N 34°41' E 135°12'0 0.0
2018-May-21 01:56N 34°41' E 135°12'0 0.0
2018-May-21 01:26N 34°41' E 135°12'0 0.0
2018-May-21 00:56N 34°41' E 135°12'0 0.0
2018-May-21 00:14N 34°41' E 135°12'0 0.0
2018-May-20 23:56N 34°41' E 135°12'0 0.0
2018-May-20 23:26N 34°41' E 135°12'0 0.1
2018-May-20 23:00N 34°41' E 135°12'3 5.4
2018-May-20 22:30N 34°38' E 135°10'4 8.4
2018-May-20 22:00N 34°34' E 135°09'612.0
2018-May-20 21:30N 34°29' E 135°06'611.8
2018-May-20 21:00N 34°23' E 135°03'611.6
2018-May-20 20:30N 34°18' E 134°60'611.6
2018-May-20 20:00N 34°13' E 134°60'612.5
2018-May-20 19:30N 34°06' E 135°01'612.4
2018-May-20 19:00N 34°00' E 135°02'12 0.3
2018-May-19 07:38N 33°48' E 135°04'212.4
2018-May-19 07:29N 33°50' E 135°02'612.3
2018-May-19 07:00N 33°55' E 135°00'612.5
2018-May-19 06:30N 34°02' E 134°59'612.1
2018-May-19 06:00N 34°08' E 134°59'612.4
2018-May-19 05:30N 34°14' E 134°58'713.2
2018-May-19 05:01N 34°20' E 134°60'612.5
2018-May-19 04:31N 34°25' E 135°04'612.8
2018-May-19 04:00N 34°30' E 135°10'612.0
2018-May-19 03:30N 34°34' E 135°14'510.9
2018-May-19 03:00N 34°40' E 135°15'2 3.7
2018-May-19 02:25N 34°42' E 135°15'0 0.0
2018-May-19 01:55N 34°42' E 135°15'0 0.0
2018-May-19 01:25N 34°42' E 135°15'0 0.0
2018-May-19 00:55N 34°42' E 135°15'0 0.0
2018-May-19 00:25N 34°42' E 135°15'0 0.0
2018-May-18 23:49N 34°42' E 135°15'0 0.0
2018-May-18 23:25N 34°42' E 135°15'0 0.0
2018-May-18 22:55N 34°42' E 135°15'2 5.0
2018-May-18 22:30N 34°40' E 135°15'3 6.3
2018-May-18 22:00N 34°37' E 135°15'0 0.0
2018-May-18 21:30N 34°37' E 135°15'0 0.0
2018-May-18 21:00N 34°37' E 135°15'0 0.0
2018-May-18 20:30N 34°37' E 135°15'0 0.0
2018-May-18 20:00N 34°37' E 135°15'0 0.8
2018-May-18 19:30N 34°37' E 135°15'612.7
2018-May-18 19:00N 34°35' E 135°08'713.8
2018-May-18 18:30N 34°37' E 134°59'714.1
2018-May-18 18:00N 34°34' E 134°51'612.5
2018-May-18 17:30N 34°32' E 134°45'612.6
2018-May-18 17:00N 34°29' E 134°38'713.5
2018-May-18 16:29N 34°27' E 134°30'13 0.4
2018-May-17 06:45N 34°24' E 134°14'310.7
2018-May-17 06:28N 34°24' E 134°17'611.5
2018-May-17 05:57N 34°26' E 134°24'611.7
2018-May-17 05:29N 34°28' E 134°31'511.4
2018-May-17 05:00N 34°30' E 134°37'611.6
2018-May-17 04:30N 34°32' E 134°43'611.7
2018-May-17 03:59N 34°34' E 134°50'611.0
2018-May-17 03:28N 34°37' E 134°56'510.2
2018-May-17 02:59N 34°37' E 135°02'510.7
2018-May-17 02:29N 34°36' E 135°09'611.9
2018-May-17 02:00N 34°38' E 135°15'4 8.7
2018-May-17 01:30N 34°42' E 135°15'0 0.1
2018-May-17 01:00N 34°42' E 135°15'0 0.0
2018-May-17 00:30N 34°42' E 135°15'0 0.0
2018-May-16 23:54N 34°42' E 135°15'0 0.0
2018-May-16 23:18N 34°42' E 135°15'0 0.0
2018-May-16 23:00N 34°42' E 135°15'4 8.3
2018-May-16 22:31N 34°38' E 135°17'2 2.9
2018-May-16 21:47N 34°37' E 135°15'0 0.0
2018-May-16 21:29N 34°37' E 135°15'0 0.3
2018-May-16 20:59N 34°37' E 135°15'1 2.7
2018-May-16 20:30N 34°36' E 135°13'713.7
2018-May-16 20:01N 34°35' E 135°05'1113.6
2018-May-16 19:14N 34°35' E 134°52'314.0
2018-May-16 19:00N 34°33' E 134°49'713.3
2018-May-16 18:30N 34°30' E 134°41'713.6
2018-May-16 18:00N 34°28' E 134°34'713.6
2018-May-16 17:29N 34°25' E 134°26'  

Dump ship's entire track history